createdAt,value
2019-04-03T00:01:24.972Z,2.83
2019-04-03T00:03:57.208Z,3.72
2019-04-03T00:06:29.444Z,3.10
2019-04-03T00:09:01.689Z,2.98
2019-04-03T00:11:33.931Z,3.12
2019-04-03T00:14:06.239Z,3.20
2019-04-03T00:16:38.456Z,3.55
2019-04-03T00:19:10.716Z,2.98
2019-04-03T00:21:42.943Z,3.10
2019-04-03T00:24:15.387Z,3.10
2019-04-03T00:26:47.649Z,2.45
2019-04-03T00:29:20.715Z,2.77
2019-04-03T00:31:54.029Z,2.75
2019-04-03T00:34:26.367Z,2.62
2019-04-03T00:36:58.687Z,2.45
2019-04-03T00:39:30.913Z,2.10
2019-04-03T00:42:03.298Z,2.52
2019-04-03T00:44:35.542Z,2.20
2019-04-03T00:47:07.797Z,2.10
2019-04-03T00:49:40.041Z,1.87
2019-04-03T00:52:12.272Z,2.22
2019-04-03T00:54:44.512Z,2.65
2019-04-03T00:57:16.753Z,1.98
2019-04-03T00:59:48.991Z,2.25
2019-04-03T01:02:21.289Z,1.52
2019-04-03T01:04:53.519Z,2.22
2019-04-03T01:07:25.745Z,2.65
2019-04-03T01:09:59.576Z,2.30
2019-04-03T01:12:31.933Z,2.65
2019-04-03T01:15:05.360Z,2.12
2019-04-03T01:17:37.655Z,2.40
2019-04-03T01:20:10.004Z,2.10
2019-04-03T01:22:42.239Z,2.02
2019-04-03T01:25:14.498Z,1.75
2019-04-03T01:27:46.761Z,1.82
2019-04-03T01:30:18.993Z,2.22
2019-04-03T01:32:51.294Z,1.60
2019-04-03T01:35:23.530Z,1.60
2019-04-03T01:37:55.756Z,2.72
2019-04-03T01:40:28.010Z,22.07
2019-04-03T01:43:00.258Z,19.52
2019-04-03T01:45:32.600Z,1.85
2019-04-03T01:48:04.850Z,1.30
2019-04-03T01:50:37.131Z,2.00
2019-04-03T01:53:09.390Z,1.77
2019-04-03T01:55:41.621Z,1.98
2019-04-03T01:58:13.850Z,1.70
2019-04-03T02:00:46.096Z,1.72
2019-04-03T02:03:18.576Z,1.82
2019-04-03T02:05:50.856Z,1.80
2019-04-03T02:08:23.095Z,2.00
2019-04-03T02:10:55.551Z,1.27
2019-04-03T02:13:27.909Z,1.77
2019-04-03T02:16:00.442Z,1.57
2019-04-03T02:18:32.692Z,1.37
2019-04-03T02:21:04.918Z,1.17
2019-04-03T02:23:37.144Z,1.57
2019-04-03T02:26:09.403Z,1.75
2019-04-03T02:28:41.669Z,1.30
2019-04-03T02:31:17.762Z,1.25
2019-04-03T02:33:47.852Z,1.42
2019-04-03T02:36:20.348Z,1.57
2019-04-03T02:38:54.018Z,1.47
2019-04-03T02:41:26.807Z,1.32
2019-04-03T02:43:59.092Z,1.45
2019-04-03T02:46:31.323Z,1.27
2019-04-03T02:49:03.556Z,1.47
2019-04-03T02:51:36.047Z,1.40
2019-04-03T02:54:09.805Z,1.20
2019-04-03T02:56:44.666Z,1.57
2019-04-03T02:59:15.987Z,1.22
2019-04-03T03:01:48.277Z,1.50
2019-04-03T03:04:21.910Z,1.45
2019-04-03T03:06:54.894Z,1.37
2019-04-03T03:09:27.387Z,1.55
2019-04-03T03:12:00.258Z,1.60
2019-04-03T03:14:32.605Z,1.40
2019-04-03T03:17:05.105Z,1.52
2019-04-03T03:19:37.360Z,1.15
2019-04-03T03:22:09.841Z,1.60
2019-04-03T03:24:42.930Z,1.57
2019-04-03T03:27:15.943Z,1.75
2019-04-03T03:29:48.203Z,1.55
2019-04-03T03:32:28.784Z,1.50
2019-04-03T03:35:06.599Z,1.67
2019-04-03T03:37:28.513Z,1.47
2019-04-03T03:40:01.210Z,1.52
2019-04-03T03:42:34.069Z,2.05
2019-04-03T03:45:06.525Z,1.65
2019-04-03T03:47:38.928Z,1.82
2019-04-03T03:50:11.565Z,1.70
2019-04-03T03:52:45.273Z,1.70
2019-04-03T03:55:18.360Z,2.22
2019-04-03T03:57:51.746Z,1.80
2019-04-03T04:00:24.790Z,1.55
2019-04-03T04:02:58.133Z,2.27
2019-04-03T04:05:30.468Z,1.65
2019-04-03T04:08:04.263Z,1.60
2019-04-03T04:10:37.969Z,1.55
2019-04-03T04:13:13.119Z,1.77
2019-04-03T04:15:44.966Z,1.70
2019-04-03T04:18:17.381Z,1.80
2019-04-03T04:20:49.674Z,1.80
2019-04-03T04:23:24.493Z,2.00
2019-04-03T04:25:56.513Z,1.90
2019-04-03T04:28:28.907Z,2.33
2019-04-03T04:31:01.233Z,2.02
2019-04-03T04:33:33.539Z,1.90
2019-04-03T04:36:05.951Z,1.90
2019-04-03T04:38:38.522Z,2.15
2019-04-03T04:41:10.757Z,2.15
2019-04-03T04:43:42.991Z,2.22
2019-04-03T04:46:15.247Z,1.98
2019-04-03T04:48:47.495Z,2.25
2019-04-03T04:51:19.741Z,1.92
2019-04-03T04:53:52.230Z,2.05
2019-04-03T04:56:24.459Z,1.98
2019-04-03T04:58:56.696Z,1.80
2019-04-03T05:01:28.998Z,1.75
2019-04-03T05:04:01.261Z,2.45
2019-04-03T05:06:33.483Z,2.10
2019-04-03T05:09:06.230Z,1.82
2019-04-03T05:11:39.093Z,2.35
2019-04-03T05:14:11.756Z,1.95
2019-04-03T05:16:44.967Z,2.20
2019-04-03T05:19:19.122Z,1.80
2019-04-03T05:21:52.894Z,2.27
2019-04-03T05:24:25.207Z,1.72
2019-04-03T05:26:57.467Z,1.62
2019-04-03T05:29:29.833Z,1.80
2019-04-03T05:32:02.181Z,1.70
2019-04-03T05:34:34.407Z,2.12
2019-04-03T05:37:06.697Z,1.92
2019-04-03T05:39:38.976Z,2.25
2019-04-03T05:42:11.253Z,2.20
2019-04-03T05:44:43.570Z,2.45
2019-04-03T05:47:16.055Z,2.10
2019-04-03T05:49:50.699Z,1.87
2019-04-03T05:52:23.334Z,2.53
2019-04-03T05:54:55.693Z,2.42
2019-04-03T05:57:29.432Z,2.55
2019-04-03T06:00:02.537Z,2.25
2019-04-03T06:02:35.740Z,3.00
2019-04-03T06:05:08.217Z,3.30
2019-04-03T06:07:40.916Z,3.00
2019-04-03T06:10:14.062Z,3.83
2019-04-03T06:12:46.674Z,4.87
2019-04-03T06:15:21.709Z,3.33
2019-04-03T06:17:55.102Z,2.83
2019-04-03T06:20:27.042Z,2.95
2019-04-03T06:22:59.299Z,2.98
2019-04-03T06:25:31.936Z,2.87
2019-04-03T06:28:04.248Z,3.83
2019-04-03T06:30:36.611Z,6.15
2019-04-03T06:33:09.707Z,5.22
2019-04-03T06:35:44.669Z,4.53
2019-04-03T06:38:16.131Z,3.65
2019-04-03T06:40:48.598Z,2.98
2019-04-03T06:43:20.902Z,3.35
2019-04-03T06:45:53.140Z,3.05
2019-04-03T06:48:25.370Z,2.87
2019-04-03T06:50:57.683Z,2.72
2019-04-03T06:53:30.157Z,2.17
2019-04-03T06:56:02.476Z,1.77
2019-04-03T06:58:38.951Z,1.98
2019-04-03T07:01:08.723Z,1.72
2019-04-03T07:03:41.180Z,1.80
2019-04-03T07:06:13.760Z,2.00
2019-04-03T07:08:46.175Z,1.95
2019-04-03T07:11:23.697Z,2.02
2019-04-03T07:13:53.643Z,2.45
2019-04-03T07:16:28.149Z,2.45
2019-04-03T07:19:00.401Z,2.60
2019-04-03T07:21:32.692Z,3.00
2019-04-03T07:24:04.957Z,2.65
2019-04-03T07:26:37.319Z,2.77
2019-04-03T07:29:11.446Z,3.40
2019-04-03T07:31:43.522Z,2.80
2019-04-03T07:34:16.426Z,3.28
2019-04-03T07:36:48.769Z,3.05
2019-04-03T07:39:21.064Z,3.00
2019-04-03T07:41:54.142Z,2.98
2019-04-03T07:44:27.667Z,3.02
2019-04-03T07:47:03.271Z,3.05
2019-04-03T07:49:35.051Z,3.50
2019-04-03T07:52:07.326Z,3.35
2019-04-03T07:54:39.569Z,2.72
2019-04-03T07:57:11.899Z,3.05
2019-04-03T07:59:44.163Z,4.37
2019-04-03T08:02:16.419Z,4.50
2019-04-03T08:04:48.720Z,4.00
2019-04-03T08:07:20.963Z,3.25
2019-04-03T08:09:53.197Z,3.05
2019-04-03T08:12:25.584Z,3.05
2019-04-03T08:14:57.920Z,3.85
2019-04-03T08:17:30.283Z,3.15
2019-04-03T08:20:02.791Z,2.92
2019-04-03T08:22:35.067Z,2.85
2019-04-03T08:25:11.025Z,2.85
2019-04-03T08:27:41.369Z,1.80
2019-04-03T08:30:13.670Z,1.27
2019-04-03T08:32:48.166Z,1.00
2019-04-03T08:35:23.165Z,0.80
2019-04-03T08:37:54.371Z,1.55
2019-04-03T08:40:26.631Z,2.00
2019-04-03T08:43:00.647Z,0.82
2019-04-03T08:45:33.005Z,0.35
2019-04-03T08:48:06.333Z,1.00
2019-04-03T08:50:39.458Z,0.75
2019-04-03T08:53:11.971Z,0.82
2019-04-03T08:55:46.406Z,0.95
2019-04-03T08:58:20.792Z,1.50
2019-04-03T09:00:52.550Z,1.05
2019-04-03T09:03:24.912Z,0.70
2019-04-03T09:05:57.497Z,0.30
2019-04-03T09:08:29.792Z,0.50
2019-04-03T09:11:02.652Z,0.65
2019-04-03T09:13:36.150Z,0.80
2019-04-03T09:16:10.140Z,0.82
2019-04-03T09:18:42.459Z,0.50
2019-04-03T09:21:15.555Z,0.60
2019-04-03T09:23:48.299Z,0.60
2019-04-03T09:26:20.786Z,0.60
2019-04-03T09:28:53.220Z,0.85
2019-04-03T09:31:25.447Z,0.57
2019-04-03T09:33:58.105Z,0.95
2019-04-03T09:36:30.828Z,0.80
2019-04-03T09:39:06.335Z,0.53
2019-04-03T09:41:38.627Z,0.82
2019-04-03T09:44:11.103Z,0.68
2019-04-03T09:46:45.124Z,0.42
2019-04-03T09:49:17.605Z,0.60
2019-04-03T09:51:52.196Z,0.50
2019-04-03T09:54:24.118Z,0.47
2019-04-03T09:57:02.930Z,0.55
2019-04-03T09:59:30.498Z,0.40
2019-04-03T10:02:02.838Z,0.37
2019-04-03T10:04:35.422Z,0.57
2019-04-03T10:07:07.735Z,0.55
2019-04-03T10:09:43.119Z,0.72
2019-04-03T10:12:14.035Z,0.70
2019-04-03T10:14:46.335Z,0.78
2019-04-03T10:17:18.670Z,0.62
2019-04-03T10:19:50.908Z,0.53
2019-04-03T10:22:24.202Z,0.72
2019-04-03T10:24:59.971Z,0.60
2019-04-03T10:27:31.358Z,1.42
2019-04-03T10:30:07.540Z,0.93
2019-04-03T10:32:39.795Z,1.62
2019-04-03T10:35:12.120Z,0.90
2019-04-03T10:37:46.294Z,0.60
2019-04-03T10:40:18.842Z,0.88
2019-04-03T10:42:51.107Z,0.55
2019-04-03T10:45:23.516Z,0.70
2019-04-03T10:47:56.648Z,0.65
2019-04-03T10:50:29.549Z,1.00
2019-04-03T10:53:02.227Z,0.95
2019-04-03T10:55:34.789Z,0.95
2019-04-03T10:58:08.366Z,0.80
2019-04-03T11:00:41.276Z,1.20
2019-04-03T11:03:13.549Z,0.70
2019-04-03T11:05:46.171Z,0.72
2019-04-03T11:08:18.423Z,0.93
2019-04-03T11:10:50.739Z,1.20
2019-04-03T11:13:23.478Z,0.85
2019-04-03T11:15:55.781Z,1.00
2019-04-03T11:18:28.275Z,1.30
2019-04-03T11:21:01.088Z,1.20
2019-04-03T11:23:40.201Z,1.10
2019-04-03T11:26:07.382Z,1.00
2019-04-03T11:28:40.147Z,1.30
2019-04-03T11:31:23.905Z,1.45
2019-04-03T11:33:47.110Z,1.02
2019-04-03T11:36:20.854Z,1.30
2019-04-03T11:38:53.407Z,0.93
2019-04-03T11:41:25.850Z,1.10
2019-04-03T11:43:58.054Z,1.27
2019-04-03T11:46:30.301Z,1.35
2019-04-03T11:49:02.568Z,1.27
2019-04-03T11:51:35.163Z,1.10
2019-04-03T11:54:08.507Z,1.30
2019-04-03T11:56:41.564Z,0.98
2019-04-03T11:59:13.912Z,0.72
2019-04-03T12:01:46.364Z,0.90
2019-04-03T12:04:18.658Z,1.12
2019-04-03T12:06:52.285Z,0.90
2019-04-03T12:09:25.278Z,1.20
2019-04-03T12:11:57.597Z,0.90
2019-04-03T12:14:30.134Z,1.10
2019-04-03T12:17:02.473Z,1.00
2019-04-03T12:19:36.907Z,1.45
2019-04-03T12:22:09.854Z,1.10
2019-04-03T12:24:42.164Z,1.00
2019-04-03T12:27:14.762Z,1.07
2019-04-03T12:29:47.603Z,1.55
2019-04-03T12:32:19.914Z,1.40
2019-04-03T12:34:57.829Z,1.05
2019-04-03T12:37:30.149Z,1.00
2019-04-03T12:40:02.446Z,0.72
2019-04-03T12:42:34.736Z,1.10
2019-04-03T12:45:09.488Z,0.82
2019-04-03T12:47:44.575Z,1.20
2019-04-03T12:50:17.475Z,0.90
2019-04-03T12:52:49.810Z,1.47
2019-04-03T12:55:22.953Z,1.20
2019-04-03T12:57:56.359Z,1.20
2019-04-03T13:00:28.566Z,1.00
2019-04-03T13:03:01.286Z,1.10
2019-04-03T13:05:36.370Z,1.05
2019-04-03T13:08:07.760Z,1.10
2019-04-03T13:10:43.188Z,1.45
2019-04-03T13:13:14.140Z,1.00
2019-04-03T13:15:46.432Z,1.00
2019-04-03T13:18:18.860Z,1.02
2019-04-03T13:20:51.100Z,1.10
2019-04-03T13:23:23.348Z,0.95
2019-04-03T13:25:55.575Z,1.10
2019-04-03T13:28:28.079Z,1.20
2019-04-03T13:31:00.714Z,1.30
2019-04-03T13:33:32.969Z,1.30
2019-04-03T13:36:05.302Z,1.30
2019-04-03T13:38:37.531Z,1.10
2019-04-03T13:41:10.623Z,0.95
2019-04-03T13:43:43.749Z,0.88
2019-04-03T13:46:15.987Z,1.00
2019-04-03T13:48:48.321Z,0.90
2019-04-03T13:51:20.562Z,0.98
2019-04-03T13:53:53.807Z,1.00
2019-04-03T13:56:26.877Z,1.20
2019-04-03T13:58:59.150Z,2.02
2019-04-03T14:01:31.603Z,1.30
2019-04-03T14:04:03.922Z,1.00
2019-04-03T14:06:37.101Z,1.00
2019-04-03T14:09:09.722Z,1.27
2019-04-03T14:11:42.120Z,1.07
2019-04-03T14:14:15.694Z,0.88
2019-04-03T14:16:48.320Z,0.93
2019-04-03T14:19:23.592Z,0.68
2019-04-03T14:21:54.538Z,0.70
2019-04-03T14:24:37.757Z,1.12
2019-04-03T14:27:01.085Z,1.00
2019-04-03T14:29:33.735Z,1.27
2019-04-03T14:32:06.032Z,0.93
2019-04-03T14:34:40.214Z,0.85
2019-04-03T14:37:13.086Z,1.45
2019-04-03T14:39:45.379Z,0.93
2019-04-03T14:42:17.630Z,1.12
2019-04-03T14:44:50.159Z,1.20
2019-04-03T14:47:23.873Z,0.88
2019-04-03T14:49:56.284Z,0.70
2019-04-03T14:52:28.859Z,0.90
2019-04-03T14:55:15.331Z,0.70
2019-04-03T14:57:35.246Z,0.70
2019-04-03T15:00:24.691Z,0.72
2019-04-03T15:02:45.516Z,0.90
2019-04-03T15:05:17.814Z,0.65
2019-04-03T15:07:50.931Z,0.60
2019-04-03T15:10:24.078Z,1.00
2019-04-03T15:12:56.868Z,1.00
2019-04-03T15:15:29.337Z,0.95
2019-04-03T15:18:01.566Z,1.00
2019-04-03T15:20:33.962Z,0.90
2019-04-03T15:23:06.220Z,0.85
2019-04-03T15:25:38.515Z,1.20
2019-04-03T15:28:10.809Z,0.90
2019-04-03T15:30:43.689Z,0.75
2019-04-03T15:33:16.543Z,0.80
2019-04-03T15:35:48.802Z,0.85
2019-04-03T15:38:21.119Z,0.90
2019-04-03T15:40:53.370Z,1.02
2019-04-03T15:43:25.723Z,1.40
2019-04-03T15:45:58.549Z,1.10
2019-04-03T15:48:31.184Z,1.07
2019-04-03T15:51:05.581Z,0.85
2019-04-03T15:53:37.551Z,1.10
2019-04-03T15:56:13.006Z,0.95
2019-04-03T15:58:43.812Z,1.07
2019-04-03T16:01:16.166Z,1.05
2019-04-03T16:03:49.596Z,1.20
2019-04-03T16:06:22.617Z,1.00
2019-04-03T16:08:54.890Z,1.00
2019-04-03T16:11:30.254Z,1.12
2019-04-03T16:14:02.379Z,1.00
2019-04-03T16:16:34.776Z,0.90
2019-04-03T16:19:08.369Z,0.75
2019-04-03T16:21:41.471Z,0.98
2019-04-03T16:24:14.060Z,1.05
2019-04-03T16:26:46.324Z,1.00
2019-04-03T16:29:18.704Z,1.12
2019-04-03T16:31:53.398Z,1.15
2019-04-03T16:34:25.332Z,1.00
2019-04-03T16:36:57.660Z,1.30
2019-04-03T16:39:32.545Z,1.22
2019-04-03T16:42:04.102Z,1.40
2019-04-03T16:44:36.676Z,1.10
2019-04-03T16:47:10.471Z,1.35
2019-04-03T16:49:43.217Z,1.60
2019-04-03T16:52:15.512Z,1.40
2019-04-03T16:54:47.811Z,1.32
2019-04-03T16:57:22.554Z,1.40
2019-04-03T16:59:54.140Z,1.80
2019-04-03T17:02:29.108Z,1.75
2019-04-03T17:05:00.695Z,1.40
2019-04-03T17:07:32.996Z,1.60
2019-04-03T17:10:05.448Z,1.70
2019-04-03T17:12:37.882Z,1.80
2019-04-03T17:15:10.690Z,2.10
2019-04-03T17:17:45.411Z,1.92
2019-04-03T17:20:17.700Z,1.70
2019-04-03T17:22:50.212Z,2.12
2019-04-03T17:25:22.568Z,1.55
2019-04-03T17:27:57.789Z,1.90
2019-04-03T17:30:28.791Z,1.82
2019-04-03T17:33:02.840Z,2.08
2019-04-03T17:35:35.623Z,2.20
2019-04-03T17:38:07.963Z,2.42
2019-04-03T17:40:40.186Z,2.60
2019-04-03T17:43:13.083Z,2.37
2019-04-03T17:45:46.555Z,2.12
2019-04-03T17:48:19.342Z,1.95
2019-04-03T17:50:51.673Z,2.92
2019-04-03T17:53:23.918Z,2.17
2019-04-03T17:55:56.266Z,2.30
2019-04-03T17:58:28.579Z,2.37
2019-04-03T18:01:00.806Z,2.77
2019-04-03T18:03:33.054Z,2.65
2019-04-03T18:06:05.299Z,2.87
2019-04-03T18:08:37.582Z,3.00
2019-04-03T18:11:09.817Z,2.98
2019-04-03T18:13:42.088Z,3.35
2019-04-03T18:16:14.304Z,3.12
2019-04-03T18:18:46.543Z,3.30
2019-04-03T18:21:18.767Z,3.00
2019-04-03T18:23:52.838Z,3.02
2019-04-03T18:26:24.968Z,3.22
2019-04-03T18:28:57.203Z,3.40
2019-04-03T18:31:29.448Z,3.08
2019-04-03T18:34:01.679Z,3.30
2019-04-03T18:36:33.934Z,3.33
2019-04-03T18:39:07.872Z,3.45
2019-04-03T18:41:41.440Z,3.70
2019-04-03T18:44:22.071Z,3.47
2019-04-03T18:46:50.094Z,2.92
2019-04-03T18:49:21.617Z,3.52
2019-04-03T18:51:53.847Z,3.30
2019-04-03T18:54:26.163Z,3.25
2019-04-03T18:56:58.487Z,3.15
2019-04-03T18:59:30.698Z,3.52
2019-04-03T19:02:03.778Z,3.10
2019-04-03T19:04:37.662Z,3.02
2019-04-03T19:07:10.587Z,2.52
2019-04-03T19:09:42.829Z,2.80
2019-04-03T19:12:15.064Z,3.47
2019-04-03T19:14:47.312Z,2.92
2019-04-03T19:17:19.569Z,3.27
2019-04-03T19:19:55.632Z,3.10
2019-04-03T19:22:26.349Z,3.08
2019-04-03T19:24:59.266Z,3.40
2019-04-03T19:27:33.049Z,3.22
2019-04-03T19:30:07.076Z,3.20
2019-04-03T19:32:42.879Z,3.40
2019-04-03T19:35:13.987Z,3.60
2019-04-03T19:37:46.214Z,3.72
2019-04-03T19:40:18.450Z,3.37
2019-04-03T19:42:50.674Z,3.90
2019-04-03T19:45:22.903Z,3.83
2019-04-03T19:47:55.520Z,3.33
2019-04-03T19:50:27.866Z,3.17
2019-04-03T19:53:00.088Z,3.15
2019-04-03T19:55:32.330Z,3.10
2019-04-03T19:58:04.562Z,3.02
2019-04-03T20:00:36.805Z,2.90
2019-04-03T20:03:09.029Z,3.10
2019-04-03T20:05:43.778Z,2.90
2019-04-03T20:08:18.082Z,2.90
2019-04-03T20:10:49.368Z,3.15
2019-04-03T20:13:21.579Z,2.98
2019-04-03T20:15:54.598Z,2.70
2019-04-03T20:18:26.945Z,2.60
2019-04-03T20:20:59.186Z,2.52
2019-04-03T20:23:31.415Z,2.60
2019-04-03T20:26:04.715Z,2.50
2019-04-03T20:28:37.189Z,2.85
2019-04-03T20:31:09.541Z,2.62
2019-04-03T20:33:42.246Z,3.00
2019-04-03T20:36:16.671Z,3.30
2019-04-03T20:38:48.992Z,2.62
2019-04-03T20:41:21.244Z,2.75
2019-04-03T20:43:53.554Z,2.90
2019-04-03T20:46:25.776Z,2.67
2019-04-03T20:48:59.141Z,2.47
2019-04-03T20:51:31.993Z,2.55
2019-04-03T20:54:04.215Z,2.47
2019-04-03T20:56:36.450Z,2.45
2019-04-03T20:59:11.151Z,2.50
2019-04-03T21:01:42.759Z,2.83
2019-04-03T21:04:15.479Z,2.75
2019-04-03T21:06:47.725Z,2.85
2019-04-03T21:09:19.974Z,2.50
2019-04-03T21:11:52.216Z,2.47
2019-04-03T21:14:24.469Z,2.80
2019-04-03T21:16:56.728Z,3.15
2019-04-03T21:19:28.960Z,2.85
2019-04-03T21:22:01.199Z,2.33
2019-04-03T21:24:34.379Z,3.00
2019-04-03T21:27:08.831Z,2.67
2019-04-03T21:29:41.115Z,2.67
2019-04-03T21:32:13.359Z,2.98
2019-04-03T21:34:45.619Z,2.90
2019-04-03T21:37:17.893Z,3.25
2019-04-03T21:39:50.168Z,2.77
2019-04-03T21:42:22.391Z,2.45
2019-04-03T21:44:54.631Z,2.72
2019-04-03T21:47:26.887Z,2.47
2019-04-03T21:49:59.103Z,2.75
2019-04-03T21:52:31.348Z,2.67
2019-04-03T21:55:05.025Z,2.42
2019-04-03T21:57:38.310Z,2.42
2019-04-03T22:00:12.972Z,2.60
2019-04-03T22:02:45.317Z,2.30
2019-04-03T22:05:18.064Z,2.30
2019-04-03T22:07:50.308Z,2.52
2019-04-03T22:10:22.579Z,3.12
2019-04-03T22:12:54.842Z,2.80
2019-04-03T22:15:27.071Z,2.65
2019-04-03T22:17:59.382Z,2.70
2019-04-03T22:20:31.625Z,2.58
2019-04-03T22:23:04.893Z,2.30
2019-04-03T22:25:39.354Z,2.58
2019-04-03T22:28:11.903Z,2.15
2019-04-03T22:30:45.756Z,3.00
2019-04-03T22:33:18.183Z,2.92
2019-04-03T22:35:50.438Z,2.83
2019-04-03T22:38:22.667Z,2.70
2019-04-03T22:40:54.894Z,2.95
2019-04-03T22:43:27.155Z,3.15
2019-04-03T22:45:59.410Z,3.22
2019-04-03T22:48:31.640Z,2.70
2019-04-03T22:51:04.962Z,3.12
2019-04-03T22:53:37.835Z,3.00
2019-04-03T22:56:10.073Z,3.50
2019-04-03T22:58:42.315Z,2.70
2019-04-03T23:01:14.558Z,3.10
2019-04-03T23:03:49.149Z,3.10
2019-04-03T23:06:20.910Z,3.17
2019-04-03T23:08:53.790Z,3.35
2019-04-03T23:11:26.660Z,3.10
2019-04-03T23:13:59.008Z,3.15
2019-04-03T23:16:31.235Z,3.12
2019-04-03T23:19:03.474Z,3.30
2019-04-03T23:21:35.728Z,3.10
2019-04-03T23:24:07.974Z,3.47
2019-04-03T23:26:40.277Z,3.20
2019-04-03T23:29:12.514Z,3.25
2019-04-03T23:31:45.445Z,3.85
2019-04-03T23:34:19.035Z,3.52
2019-04-03T23:36:52.420Z,3.75
2019-04-03T23:39:27.650Z,3.12
2019-04-03T23:41:59.862Z,3.58
2019-04-03T23:44:32.113Z,3.83
2019-04-03T23:47:04.359Z,3.92
2019-04-03T23:49:36.598Z,4.15
2019-04-03T23:52:08.838Z,4.00
2019-04-03T23:54:41.089Z,4.12
2019-04-03T23:57:13.295Z,4.28
2019-04-03T23:59:45.532Z,3.67
